sensor_id;sensor_type;location;lat;lon;timestamp;temperature;humidity
18741;DHT22;9499;52.472;13.448;2022-07-23T00:00:06;19.60;99.90
18741;DHT22;9499;52.472;13.448;2022-07-23T00:02:33;19.60;99.90
18741;DHT22;9499;52.472;13.448;2022-07-23T00:04:59;19.60;99.90
18741;DHT22;9499;52.472;13.448;2022-07-23T00:07:26;19.60;99.90
18741;DHT22;9499;52.472;13.448;2022-07-23T00:09:52;19.60;99.90
18741;DHT22;9499;52.472;13.448;2022-07-23T00:12:19;19.60;99.90
18741;DHT22;9499;52.472;13.448;2022-07-23T00:14:46;19.70;99.90
18741;DHT22;9499;52.472;13.448;2022-07-23T00:17:14;19.70;99.90
18741;DHT22;9499;52.472;13.448;2022-07-23T00:19:40;19.80;99.90
18741;DHT22;9499;52.472;13.448;2022-07-23T00:22:07;19.80;99.90
18741;DHT22;9499;52.472;13.448;2022-07-23T00:24:33;19.80;99.90
18741;DHT22;9499;52.472;13.448;2022-07-23T00:27:00;19.80;99.90
18741;DHT22;9499;52.472;13.448;2022-07-23T00:29:26;19.70;99.90
18741;DHT22;9499;52.472;13.448;2022-07-23T00:31:53;19.70;99.90
18741;DHT22;9499;52.472;13.448;2022-07-23T00:34:21;19.70;99.90
18741;DHT22;9499;52.472;13.448;2022-07-23T00:36:47;19.70;99.90
18741;DHT22;9499;52.472;13.448;2022-07-23T00:39:14;19.70;99.90
18741;DHT22;9499;52.472;13.448;2022-07-23T00:41:40;19.70;99.90
18741;DHT22;9499;52.472;13.448;2022-07-23T00:44:18;19.80;99.90
18741;DHT22;9499;52.472;13.448;2022-07-23T00:46:46;19.80;99.90
18741;DHT22;9499;52.472;13.448;2022-07-23T00:49:13;19.80;99.90
18741;DHT22;9499;52.472;13.448;2022-07-23T00:51:41;19.80;99.90
18741;DHT22;9499;52.472;13.448;2022-07-23T00:54:08;19.70;99.90
18741;DHT22;9499;52.472;13.448;2022-07-23T00:56:35;19.60;99.90
18741;DHT22;9499;52.472;13.448;2022-07-23T00:59:02;19.60;99.90
18741;DHT22;9499;52.472;13.448;2022-07-23T01:01:29;19.50;99.90
18741;DHT22;9499;52.472;13.448;2022-07-23T01:03:55;19.50;99.90
18741;DHT22;9499;52.472;13.448;2022-07-23T01:06:22;19.60;99.90
18741;DHT22;9499;52.472;13.448;2022-07-23T01:08:49;19.60;99.90
18741;DHT22;9499;52.472;13.448;2022-07-23T01:11:17;19.60;99.90
18741;DHT22;9499;52.472;13.448;2022-07-23T01:13:44;19.50;99.90
18741;DHT22;9499;52.472;13.448;2022-07-23T01:16:11;19.60;99.90
18741;DHT22;9499;52.472;13.448;2022-07-23T01:18:37;19.60;99.90
18741;DHT22;9499;52.472;13.448;2022-07-23T01:21:04;19.60;99.90
18741;DHT22;9499;52.472;13.448;2022-07-23T01:23:32;19.50;99.90
18741;DHT22;9499;52.472;13.448;2022-07-23T01:25:58;19.50;99.90
18741;DHT22;9499;52.472;13.448;2022-07-23T01:28:25;19.50;99.90
18741;DHT22;9499;52.472;13.448;2022-07-23T01:30:51;19.50;99.90
18741;DHT22;9499;52.472;13.448;2022-07-23T01:33:18;19.40;99.90
18741;DHT22;9499;52.472;13.448;2022-07-23T01:35:44;19.50;99.90
18741;DHT22;9499;52.472;13.448;2022-07-23T01:38:11;19.50;99.90
18741;DHT22;9499;52.472;13.448;2022-07-23T01:40:39;19.60;99.90
18741;DHT22;9499;52.472;13.448;2022-07-23T01:43:05;19.60;99.90
18741;DHT22;9499;52.472;13.448;2022-07-23T01:45:32;19.60;99.90
18741;DHT22;9499;52.472;13.448;2022-07-23T01:47:58;19.60;99.90
18741;DHT22;9499;52.472;13.448;2022-07-23T01:50:25;19.60;99.90
18741;DHT22;9499;52.472;13.448;2022-07-23T01:52:51;19.60;99.90
18741;DHT22;9499;52.472;13.448;2022-07-23T01:55:18;19.50;99.90
18741;DHT22;9499;52.472;13.448;2022-07-23T01:57:46;19.50;99.90
18741;DHT22;9499;52.472;13.448;2022-07-23T02:00:13;19.50;99.90
18741;DHT22;9499;52.472;13.448;2022-07-23T02:02:39;19.50;99.90
18741;DHT22;9499;52.472;13.448;2022-07-23T02:05:06;19.60;99.90
18741;DHT22;9499;52.472;13.448;2022-07-23T02:07:33;19.50;99.90
18741;DHT22;9499;52.472;13.448;2022-07-23T02:09:59;19.50;99.90
18741;DHT22;9499;52.472;13.448;2022-07-23T02:12:26;19.60;99.90
18741;DHT22;9499;52.472;13.448;2022-07-23T02:14:54;19.60;99.90
18741;DHT22;9499;52.472;13.448;2022-07-23T02:17:20;19.60;99.90
18741;DHT22;9499;52.472;13.448;2022-07-23T02:19:46;19.60;99.90
18741;DHT22;9499;52.472;13.448;2022-07-23T02:22:13;19.60;99.90
18741;DHT22;9499;52.472;13.448;2022-07-23T02:24:39;19.60;99.90
18741;DHT22;9499;52.472;13.448;2022-07-23T02:27:06;19.60;99.90
18741;DHT22;9499;52.472;13.448;2022-07-23T02:29:32;19.60;99.90
18741;DHT22;9499;52.472;13.448;2022-07-23T02:32:00;19.50;99.90
18741;DHT22;9499;52.472;13.448;2022-07-23T02:34:27;19.50;99.90
18741;DHT22;9499;52.472;13.448;2022-07-23T02:36:53;19.40;99.90
18741;DHT22;9499;52.472;13.448;2022-07-23T02:39:20;19.40;99.90
18741;DHT22;9499;52.472;13.448;2022-07-23T02:41:46;19.40;99.90
18741;DHT22;9499;52.472;13.448;2022-07-23T02:44:13;19.40;99.90
18741;DHT22;9499;52.472;13.448;2022-07-23T02:46:39;19.30;99.90
18741;DHT22;9499;52.472;13.448;2022-07-23T02:49:07;19.30;99.90
18741;DHT22;9499;52.472;13.448;2022-07-23T02:51:34;19.30;99.90
18741;DHT22;9499;52.472;13.448;2022-07-23T02:54:00;19.30;99.90
18741;DHT22;9499;52.472;13.448;2022-07-23T02:56:27;19.20;99.90
18741;DHT22;9499;52.472;13.448;2022-07-23T02:58:53;19.30;99.90
18741;DHT22;9499;52.472;13.448;2022-07-23T03:01:20;19.20;99.90
18741;DHT22;9499;52.472;13.448;2022-07-23T03:03:46;19.20;99.90
18741;DHT22;9499;52.472;13.448;2022-07-23T03:06:14;19.20;99.90
18741;DHT22;9499;52.472;13.448;2022-07-23T03:08:41;19.20;99.90
18741;DHT22;9499;52.472;13.448;2022-07-23T03:11:07;19.10;99.90
18741;DHT22;9499;52.472;13.448;2022-07-23T03:13:36;19.20;99.90
18741;DHT22;9499;52.472;13.448;2022-07-23T03:16:03;19.20;99.90
18741;DHT22;9499;52.472;13.448;2022-07-23T03:18:30;19.10;99.90
18741;DHT22;9499;52.472;13.448;2022-07-23T03:20:56;19.10;99.90
18741;DHT22;9499;52.472;13.448;2022-07-23T03:23:24;19.20;99.90
18741;DHT22;9499;52.472;13.448;2022-07-23T03:25:51;19.10;99.90
18741;DHT22;9499;52.472;13.448;2022-07-23T03:28:18;19.00;99.90
18741;DHT22;9499;52.472;13.448;2022-07-23T03:30:46;19.00;99.90
18741;DHT22;9499;52.472;13.448;2022-07-23T03:33:14;18.90;99.90
18741;DHT22;9499;52.472;13.448;2022-07-23T03:35:42;18.80;99.90
18741;DHT22;9499;52.472;13.448;2022-07-23T03:38:08;18.70;99.90
18741;DHT22;9499;52.472;13.448;2022-07-23T03:40:36;18.60;99.90
18741;DHT22;9499;52.472;13.448;2022-07-23T03:43:03;18.60;99.90
18741;DHT22;9499;52.472;13.448;2022-07-23T03:45:30;18.50;99.90
18741;DHT22;9499;52.472;13.448;2022-07-23T03:47:57;18.50;99.90
18741;DHT22;9499;52.472;13.448;2022-07-23T03:50:23;18.40;99.90
18741;DHT22;9499;52.472;13.448;2022-07-23T03:52:50;18.50;99.90
18741;DHT22;9499;52.472;13.448;2022-07-23T03:55:16;18.50;99.90
18741;DHT22;9499;52.472;13.448;2022-07-23T03:57:44;18.40;99.90
18741;DHT22;9499;52.472;13.448;2022-07-23T04:00:12;18.30;99.90
18741;DHT22;9499;52.472;13.448;2022-07-23T04:02:39;18.20;99.90
18741;DHT22;9499;52.472;13.448;2022-07-23T04:05:07;18.20;99.90
18741;DHT22;9499;52.472;13.448;2022-07-23T04:07:33;18.30;99.90
18741;DHT22;9499;52.472;13.448;2022-07-23T04:10:00;18.30;99.90
18741;DHT22;9499;52.472;13.448;2022-07-23T04:12:26;18.30;99.90
18741;DHT22;9499;52.472;13.448;2022-07-23T04:14:54;18.20;99.90
18741;DHT22;9499;52.472;13.448;2022-07-23T04:17:20;18.20;99.90
18741;DHT22;9499;52.472;13.448;2022-07-23T04:19:47;18.10;99.90
18741;DHT22;9499;52.472;13.448;2022-07-23T04:22:13;18.10;99.90
18741;DHT22;9499;52.472;13.448;2022-07-23T04:24:40;18.10;99.90
18741;DHT22;9499;52.472;13.448;2022-07-23T04:27:06;18.10;99.90
18741;DHT22;9499;52.472;13.448;2022-07-23T04:29:33;18.10;99.90
18741;DHT22;9499;52.472;13.448;2022-07-23T04:32:01;18.10;99.90
18741;DHT22;9499;52.472;13.448;2022-07-23T04:34:27;18.20;99.90
18741;DHT22;9499;52.472;13.448;2022-07-23T04:36:54;18.20;99.90
18741;DHT22;9499;52.472;13.448;2022-07-23T04:39:20;18.20;99.90
18741;DHT22;9499;52.472;13.448;2022-07-23T04:41:47;18.10;99.90
18741;DHT22;9499;52.472;13.448;2022-07-23T04:44:13;18.10;99.90
18741;DHT22;9499;52.472;13.448;2022-07-23T04:46:40;18.00;99.90
18741;DHT22;9499;52.472;13.448;2022-07-23T04:49:08;17.90;99.90
18741;DHT22;9499;52.472;13.448;2022-07-23T04:51:35;17.90;99.90
18741;DHT22;9499;52.472;13.448;2022-07-23T04:54:01;17.90;99.90
18741;DHT22;9499;52.472;13.448;2022-07-23T04:56:28;17.80;99.90
18741;DHT22;9499;52.472;13.448;2022-07-23T04:58:54;17.60;99.90
18741;DHT22;9499;52.472;13.448;2022-07-23T05:01:21;17.60;99.90
18741;DHT22;9499;52.472;13.448;2022-07-23T05:03:47;17.60;99.90
18741;DHT22;9499;52.472;13.448;2022-07-23T05:06:15;17.60;99.90
18741;DHT22;9499;52.472;13.448;2022-07-23T05:08:42;17.60;99.90
18741;DHT22;9499;52.472;13.448;2022-07-23T05:11:09;17.50;99.90
18741;DHT22;9499;52.472;13.448;2022-07-23T05:13:35;17.50;99.90
18741;DHT22;9499;52.472;13.448;2022-07-23T05:16:02;17.40;99.90
18741;DHT22;9499;52.472;13.448;2022-07-23T05:18:28;17.40;99.90
18741;DHT22;9499;52.472;13.448;2022-07-23T05:20:55;17.30;99.90
18741;DHT22;9499;52.472;13.448;2022-07-23T05:23:23;17.30;99.90
18741;DHT22;9499;52.472;13.448;2022-07-23T05:25:49;17.20;99.90
18741;DHT22;9499;52.472;13.448;2022-07-23T05:28:16;17.20;99.90
18741;DHT22;9499;52.472;13.448;2022-07-23T05:30:42;17.20;99.90
18741;DHT22;9499;52.472;13.448;2022-07-23T05:33:09;17.10;99.90
18741;DHT22;9499;52.472;13.448;2022-07-23T05:35:35;17.10;99.90
18741;DHT22;9499;52.472;13.448;2022-07-23T05:38:02;17.20;99.90
18741;DHT22;9499;52.472;13.448;2022-07-23T05:40:30;17.20;99.90
18741;DHT22;9499;52.472;13.448;2022-07-23T05:42:58;17.20;99.90
18741;DHT22;9499;52.472;13.448;2022-07-23T05:45:25;17.20;99.90
18741;DHT22;9499;52.472;13.448;2022-07-23T05:47:51;17.20;99.90
18741;DHT22;9499;52.472;13.448;2022-07-23T05:50:18;17.20;99.90
18741;DHT22;9499;52.472;13.448;2022-07-23T05:52:45;17.20;99.90
18741;DHT22;9499;52.472;13.448;2022-07-23T05:55:12;17.20;99.90
18741;DHT22;9499;52.472;13.448;2022-07-23T05:57:41;17.20;99.90
18741;DHT22;9499;52.472;13.448;2022-07-23T06:00:09;17.20;99.90
18741;DHT22;9499;52.472;13.448;2022-07-23T06:02:37;17.20;99.90
18741;DHT22;9499;52.472;13.448;2022-07-23T06:05:04;17.20;99.90
18741;DHT22;9499;52.472;13.448;2022-07-23T06:07:32;17.20;99.90
18741;DHT22;9499;52.472;13.448;2022-07-23T06:09:59;17.30;99.90
18741;DHT22;9499;52.472;13.448;2022-07-23T06:12:26;17.20;99.90
18741;DHT22;9499;52.472;13.448;2022-07-23T06:14:53;17.20;99.90
18741;DHT22;9499;52.472;13.448;2022-07-23T06:17:20;17.30;99.90
18741;DHT22;9499;52.472;13.448;2022-07-23T06:19:46;17.20;99.90
18741;DHT22;9499;52.472;13.448;2022-07-23T06:22:13;17.10;99.90
18741;DHT22;9499;52.472;13.448;2022-07-23T06:24:39;17.00;99.90
18741;DHT22;9499;52.472;13.448;2022-07-23T06:27:06;16.90;99.90
18741;DHT22;9499;52.472;13.448;2022-07-23T06:29:32;16.90;99.90
18741;DHT22;9499;52.472;13.448;2022-07-23T06:32:00;16.90;99.90
18741;DHT22;9499;52.472;13.448;2022-07-23T06:34:27;16.90;99.90
18741;DHT22;9499;52.472;13.448;2022-07-23T06:36:54;16.90;99.90
18741;DHT22;9499;52.472;13.448;2022-07-23T06:39:20;16.90;99.90
18741;DHT22;9499;52.472;13.448;2022-07-23T06:41:47;16.90;99.90
18741;DHT22;9499;52.472;13.448;2022-07-23T06:44:13;16.90;99.90
18741;DHT22;9499;52.472;13.448;2022-07-23T06:46:39;16.90;99.90
18741;DHT22;9499;52.472;13.448;2022-07-23T06:49:07;16.90;99.90
18741;DHT22;9499;52.472;13.448;2022-07-23T06:51:34;17.00;99.90
18741;DHT22;9499;52.472;13.448;2022-07-23T06:54:01;17.00;99.90
18741;DHT22;9499;52.472;13.448;2022-07-23T06:56:27;17.10;99.90
18741;DHT22;9499;52.472;13.448;2022-07-23T06:58:54;17.10;99.90
18741;DHT22;9499;52.472;13.448;2022-07-23T07:01:20;17.10;99.90
18741;DHT22;9499;52.472;13.448;2022-07-23T07:03:47;17.10;99.90
18741;DHT22;9499;52.472;13.448;2022-07-23T07:06:15;17.10;99.90
18741;DHT22;9499;52.472;13.448;2022-07-23T07:08:42;17.20;99.90
18741;DHT22;9499;52.472;13.448;2022-07-23T07:11:09;17.10;99.90
18741;DHT22;9499;52.472;13.448;2022-07-23T07:13:36;17.00;99.90
18741;DHT22;9499;52.472;13.448;2022-07-23T07:16:03;16.90;99.90
18741;DHT22;9499;52.472;13.448;2022-07-23T07:18:30;16.80;99.90
18741;DHT22;9499;52.472;13.448;2022-07-23T07:20:57;16.80;99.90
18741;DHT22;9499;52.472;13.448;2022-07-23T07:23:25;16.70;99.90
18741;DHT22;9499;52.472;13.448;2022-07-23T07:25:51;16.80;99.90
18741;DHT22;9499;52.472;13.448;2022-07-23T07:28:18;16.80;99.90
18741;DHT22;9499;52.472;13.448;2022-07-23T07:30:44;16.80;99.90
18741;DHT22;9499;52.472;13.448;2022-07-23T07:33:11;16.90;99.90
18741;DHT22;9499;52.472;13.448;2022-07-23T07:35:37;16.90;99.90
18741;DHT22;9499;52.472;13.448;2022-07-23T07:38:04;17.00;99.90
18741;DHT22;9499;52.472;13.448;2022-07-23T07:40:32;17.00;99.90
18741;DHT22;9499;52.472;13.448;2022-07-23T07:42:58;17.10;99.90
18741;DHT22;9499;52.472;13.448;2022-07-23T07:45:25;17.20;99.90
18741;DHT22;9499;52.472;13.448;2022-07-23T07:47:52;17.30;99.90
18741;DHT22;9499;52.472;13.448;2022-07-23T07:50:19;17.30;99.90
18741;DHT22;9499;52.472;13.448;2022-07-23T07:52:45;17.30;99.90
18741;DHT22;9499;52.472;13.448;2022-07-23T07:55:12;17.30;99.90
18741;DHT22;9499;52.472;13.448;2022-07-23T07:57:41;17.40;99.90
18741;DHT22;9499;52.472;13.448;2022-07-23T08:00:09;17.50;99.90
18741;DHT22;9499;52.472;13.448;2022-07-23T08:02:41;17.50;99.90
18741;DHT22;9499;52.472;13.448;2022-07-23T08:05:08;17.60;99.90
18741;DHT22;9499;52.472;13.448;2022-07-23T08:07:35;17.70;99.90
18741;DHT22;9499;52.472;13.448;2022-07-23T08:10:03;17.80;99.90
18741;DHT22;9499;52.472;13.448;2022-07-23T08:12:37;17.90;99.90
18741;DHT22;9499;52.472;13.448;2022-07-23T08:15:07;17.90;99.90
18741;DHT22;9499;52.472;13.448;2022-07-23T08:17:33;17.90;99.90
18741;DHT22;9499;52.472;13.448;2022-07-23T08:20:00;17.90;99.90
18741;DHT22;9499;52.472;13.448;2022-07-23T08:22:41;17.90;99.90
18741;DHT22;9499;52.472;13.448;2022-07-23T08:25:08;18.00;99.90
18741;DHT22;9499;52.472;13.448;2022-07-23T08:27:35;18.10;99.90
18741;DHT22;9499;52.472;13.448;2022-07-23T08:30:01;18.10;99.90
18741;DHT22;9499;52.472;13.448;2022-07-23T08:32:29;18.20;99.90
18741;DHT22;9499;52.472;13.448;2022-07-23T08:34:55;18.40;99.90
18741;DHT22;9499;52.472;13.448;2022-07-23T08:37:22;18.60;99.90
18741;DHT22;9499;52.472;13.448;2022-07-23T08:39:48;18.60;99.90
18741;DHT22;9499;52.472;13.448;2022-07-23T08:42:15;18.60;99.90
18741;DHT22;9499;52.472;13.448;2022-07-23T08:44:44;18.60;99.90
18741;DHT22;9499;52.472;13.448;2022-07-23T08:47:11;18.70;99.90
18741;DHT22;9499;52.472;13.448;2022-07-23T08:49:39;18.80;99.90
18741;DHT22;9499;52.472;13.448;2022-07-23T08:52:07;18.80;99.90
18741;DHT22;9499;52.472;13.448;2022-07-23T08:54:34;18.80;99.90
18741;DHT22;9499;52.472;13.448;2022-07-23T08:57:01;18.80;99.90
18741;DHT22;9499;52.472;13.448;2022-07-23T08:59:29;18.90;99.90
18741;DHT22;9499;52.472;13.448;2022-07-23T09:01:57;19.00;99.90
18741;DHT22;9499;52.472;13.448;2022-07-23T09:04:25;19.10;99.90
18741;DHT22;9499;52.472;13.448;2022-07-23T09:06:53;19.20;99.90
18741;DHT22;9499;52.472;13.448;2022-07-23T09:09:21;19.20;99.90
18741;DHT22;9499;52.472;13.448;2022-07-23T09:11:48;19.30;99.90
18741;DHT22;9499;52.472;13.448;2022-07-23T09:14:36;19.40;99.90
18741;DHT22;9499;52.472;13.448;2022-07-23T09:17:09;19.50;99.90
18741;DHT22;9499;52.472;13.448;2022-07-23T09:19:35;19.50;99.90
18741;DHT22;9499;52.472;13.448;2022-07-23T09:22:19;19.60;99.90
18741;DHT22;9499;52.472;13.448;2022-07-23T09:25:07;19.70;99.90
18741;DHT22;9499;52.472;13.448;2022-07-23T09:27:48;19.70;99.90
18741;DHT22;9499;52.472;13.448;2022-07-23T09:30:16;19.70;99.90
18741;DHT22;9499;52.472;13.448;2022-07-23T09:32:42;19.70;99.90
18741;DHT22;9499;52.472;13.448;2022-07-23T09:35:09;19.70;99.90
18741;DHT22;9499;52.472;13.448;2022-07-23T09:37:37;19.60;99.90
18741;DHT22;9499;52.472;13.448;2022-07-23T09:40:05;19.50;99.90
18741;DHT22;9499;52.472;13.448;2022-07-23T09:42:32;19.50;99.90
18741;DHT22;9499;52.472;13.448;2022-07-23T09:44:59;19.70;99.90
18741;DHT22;9499;52.472;13.448;2022-07-23T09:47:27;19.70;99.90
18741;DHT22;9499;52.472;13.448;2022-07-23T09:49:58;19.70;99.90
18741;DHT22;9499;52.472;13.448;2022-07-23T09:52:27;19.60;99.90
18741;DHT22;9499;52.472;13.448;2022-07-23T09:54:59;19.70;99.90
18741;DHT22;9499;52.472;13.448;2022-07-23T09:57:27;19.80;99.90
18741;DHT22;9499;52.472;13.448;2022-07-23T09:59:57;19.80;99.90
18741;DHT22;9499;52.472;13.448;2022-07-23T10:02:25;19.80;99.90
18741;DHT22;9499;52.472;13.448;2022-07-23T10:04:54;19.90;99.90
18741;DHT22;9499;52.472;13.448;2022-07-23T10:07:21;20.00;99.90
18741;DHT22;9499;52.472;13.448;2022-07-23T10:09:50;20.20;99.90
18741;DHT22;9499;52.472;13.448;2022-07-23T10:12:20;20.30;99.90
18741;DHT22;9499;52.472;13.448;2022-07-23T10:14:56;20.40;99.90
18741;DHT22;9499;52.472;13.448;2022-07-23T10:17:23;20.50;99.90
18741;DHT22;9499;52.472;13.448;2022-07-23T10:19:49;20.50;99.90
18741;DHT22;9499;52.472;13.448;2022-07-23T10:22:20;20.70;99.90
18741;DHT22;9499;52.472;13.448;2022-07-23T10:25:10;20.80;99.90
18741;DHT22;9499;52.472;13.448;2022-07-23T10:27:57;21.00;99.90
18741;DHT22;9499;52.472;13.448;2022-07-23T10:30:32;21.00;99.90
18741;DHT22;9499;52.472;13.448;2022-07-23T10:33:12;21.20;99.90
18741;DHT22;9499;52.472;13.448;2022-07-23T10:35:49;21.60;99.90
18741;DHT22;9499;52.472;13.448;2022-07-23T10:38:21;21.90;99.90
18741;DHT22;9499;52.472;13.448;2022-07-23T10:40:54;22.20;99.90
18741;DHT22;9499;52.472;13.448;2022-07-23T10:43:23;22.50;99.90
18741;DHT22;9499;52.472;13.448;2022-07-23T10:45:50;22.40;99.90
18741;DHT22;9499;52.472;13.448;2022-07-23T10:48:18;22.30;99.90
18741;DHT22;9499;52.472;13.448;2022-07-23T10:51:07;22.30;99.90
18741;DHT22;9499;52.472;13.448;2022-07-23T10:53:55;22.40;99.90
18741;DHT22;9499;52.472;13.448;2022-07-23T10:56:51;22.50;99.90
18741;DHT22;9499;52.472;13.448;2022-07-23T10:59:32;22.30;99.90
18741;DHT22;9499;52.472;13.448;2022-07-23T11:02:22;22.40;99.90
18741;DHT22;9499;52.472;13.448;2022-07-23T11:04:50;22.50;99.90
18741;DHT22;9499;52.472;13.448;2022-07-23T11:07:17;22.70;99.90
18741;DHT22;9499;52.472;13.448;2022-07-23T11:09:44;22.80;99.90
18741;DHT22;9499;52.472;13.448;2022-07-23T11:12:32;22.80;99.90
18741;DHT22;9499;52.472;13.448;2022-07-23T11:15:04;22.70;99.90
18741;DHT22;9499;52.472;13.448;2022-07-23T11:17:33;22.80;99.90
18741;DHT22;9499;52.472;13.448;2022-07-23T11:20:18;23.10;99.90
18741;DHT22;9499;52.472;13.448;2022-07-23T11:22:52;23.40;99.90
18741;DHT22;9499;52.472;13.448;2022-07-23T11:25:38;23.80;99.90
18741;DHT22;9499;52.472;13.448;2022-07-23T11:28:14;24.00;99.90
18741;DHT22;9499;52.472;13.448;2022-07-23T11:30:44;23.80;99.90
18741;DHT22;9499;52.472;13.448;2022-07-23T11:33:21;23.80;99.90
18741;DHT22;9499;52.472;13.448;2022-07-23T11:35:50;24.00;99.90
18741;DHT22;9499;52.472;13.448;2022-07-23T11:38:25;23.90;99.90
18741;DHT22;9499;52.472;13.448;2022-07-23T11:40:53;24.00;99.90
18741;DHT22;9499;52.472;13.448;2022-07-23T11:43:22;24.10;99.90
18741;DHT22;9499;52.472;13.448;2022-07-23T11:45:57;24.30;99.90
18741;DHT22;9499;52.472;13.448;2022-07-23T11:48:25;24.40;99.90
18741;DHT22;9499;52.472;13.448;2022-07-23T11:50:53;24.20;99.90
18741;DHT22;9499;52.472;13.448;2022-07-23T11:53:23;24.20;99.90
18741;DHT22;9499;52.472;13.448;2022-07-23T11:55:50;24.20;99.90
18741;DHT22;9499;52.472;13.448;2022-07-23T11:58:17;24.30;99.90
18741;DHT22;9499;52.472;13.448;2022-07-23T12:00:44;24.40;99.90
18741;DHT22;9499;52.472;13.448;2022-07-23T12:03:12;24.60;99.90
18741;DHT22;9499;52.472;13.448;2022-07-23T12:05:39;24.70;99.90
18741;DHT22;9499;52.472;13.448;2022-07-23T12:08:08;24.90;99.90
18741;DHT22;9499;52.472;13.448;2022-07-23T12:10:36;25.00;99.90
18741;DHT22;9499;52.472;13.448;2022-07-23T12:13:04;25.20;99.90
18741;DHT22;9499;52.472;13.448;2022-07-23T12:15:33;25.20;99.90
18741;DHT22;9499;52.472;13.448;2022-07-23T12:18:03;24.80;99.90
18741;DHT22;9499;52.472;13.448;2022-07-23T12:20:34;24.50;99.90
18741;DHT22;9499;52.472;13.448;2022-07-23T12:23:03;24.10;99.90
18741;DHT22;9499;52.472;13.448;2022-07-23T12:25:32;23.90;99.90
18741;DHT22;9499;52.472;13.448;2022-07-23T12:28:02;23.80;99.90
18741;DHT22;9499;52.472;13.448;2022-07-23T12:30:31;23.60;99.90
18741;DHT22;9499;52.472;13.448;2022-07-23T12:32:58;23.50;99.90
18741;DHT22;9499;52.472;13.448;2022-07-23T12:35:34;23.40;99.90
18741;DHT22;9499;52.472;13.448;2022-07-23T12:38:03;23.30;99.90
18741;DHT22;9499;52.472;13.448;2022-07-23T12:40:32;23.30;99.90
18741;DHT22;9499;52.472;13.448;2022-07-23T12:43:01;23.40;99.90
18741;DHT22;9499;52.472;13.448;2022-07-23T12:45:42;23.40;99.90
18741;DHT22;9499;52.472;13.448;2022-07-23T12:48:16;23.30;99.90
18741;DHT22;9499;52.472;13.448;2022-07-23T12:50:49;23.20;99.90
18741;DHT22;9499;52.472;13.448;2022-07-23T12:53:18;23.30;99.90
18741;DHT22;9499;52.472;13.448;2022-07-23T12:55:46;23.60;99.90
18741;DHT22;9499;52.472;13.448;2022-07-23T12:58:14;24.00;99.90
18741;DHT22;9499;52.472;13.448;2022-07-23T13:00:53;24.20;99.90
18741;DHT22;9499;52.472;13.448;2022-07-23T13:03:21;24.70;99.90
18741;DHT22;9499;52.472;13.448;2022-07-23T13:05:49;25.10;99.90
18741;DHT22;9499;52.472;13.448;2022-07-23T13:08:16;25.20;99.90
18741;DHT22;9499;52.472;13.448;2022-07-23T13:10:42;25.10;99.90
18741;DHT22;9499;52.472;13.448;2022-07-23T13:13:12;24.90;99.90
18741;DHT22;9499;52.472;13.448;2022-07-23T13:15:38;24.80;99.90
18741;DHT22;9499;52.472;13.448;2022-07-23T13:18:05;24.80;99.90
18741;DHT22;9499;52.472;13.448;2022-07-23T13:20:32;24.60;99.90
18741;DHT22;9499;52.472;13.448;2022-07-23T13:23:00;24.50;99.90
18741;DHT22;9499;52.472;13.448;2022-07-23T13:25:27;24.50;99.90
18741;DHT22;9499;52.472;13.448;2022-07-23T13:27:54;24.60;99.90
18741;DHT22;9499;52.472;13.448;2022-07-23T13:30:20;24.60;99.90
18741;DHT22;9499;52.472;13.448;2022-07-23T13:32:47;24.70;99.90
18741;DHT22;9499;52.472;13.448;2022-07-23T13:35:14;24.90;99.90
18741;DHT22;9499;52.472;13.448;2022-07-23T13:37:41;25.30;99.90
18741;DHT22;9499;52.472;13.448;2022-07-23T13:40:09;25.80;99.90
18741;DHT22;9499;52.472;13.448;2022-07-23T13:42:36;25.90;99.90
18741;DHT22;9499;52.472;13.448;2022-07-23T13:45:04;25.70;99.90
18741;DHT22;9499;52.472;13.448;2022-07-23T13:47:31;25.70;99.90
18741;DHT22;9499;52.472;13.448;2022-07-23T13:49:58;25.50;99.90
18741;DHT22;9499;52.472;13.448;2022-07-23T13:52:25;25.20;99.90
18741;DHT22;9499;52.472;13.448;2022-07-23T13:54:51;24.90;99.90
18741;DHT22;9499;52.472;13.448;2022-07-23T13:57:19;24.60;99.90
18741;DHT22;9499;52.472;13.448;2022-07-23T13:59:46;24.50;99.90
18741;DHT22;9499;52.472;13.448;2022-07-23T14:02:15;24.50;99.90
18741;DHT22;9499;52.472;13.448;2022-07-23T14:04:43;24.60;99.90
18741;DHT22;9499;52.472;13.448;2022-07-23T14:07:10;24.70;99.90
18741;DHT22;9499;52.472;13.448;2022-07-23T14:09:37;24.70;99.90
18741;DHT22;9499;52.472;13.448;2022-07-23T14:12:05;24.70;99.90
18741;DHT22;9499;52.472;13.448;2022-07-23T14:14:34;25.00;99.90
18741;DHT22;9499;52.472;13.448;2022-07-23T14:17:02;25.20;99.90
18741;DHT22;9499;52.472;13.448;2022-07-23T14:19:32;25.20;99.90
18741;DHT22;9499;52.472;13.448;2022-07-23T14:21:58;25.00;99.90
18741;DHT22;9499;52.472;13.448;2022-07-23T14:24:25;24.90;99.90
18741;DHT22;9499;52.472;13.448;2022-07-23T14:26:52;24.80;99.90
18741;DHT22;9499;52.472;13.448;2022-07-23T14:29:19;24.80;99.90
18741;DHT22;9499;52.472;13.448;2022-07-23T14:31:48;24.80;99.90
18741;DHT22;9499;52.472;13.448;2022-07-23T14:34:15;24.80;99.90
18741;DHT22;9499;52.472;13.448;2022-07-23T14:36:43;24.60;99.90
18741;DHT22;9499;52.472;13.448;2022-07-23T14:39:09;24.70;99.90
18741;DHT22;9499;52.472;13.448;2022-07-23T14:41:37;24.90;99.90
18741;DHT22;9499;52.472;13.448;2022-07-23T14:44:04;25.10;99.90
18741;DHT22;9499;52.472;13.448;2022-07-23T14:46:31;25.20;99.90
18741;DHT22;9499;52.472;13.448;2022-07-23T14:48:58;25.10;99.90
18741;DHT22;9499;52.472;13.448;2022-07-23T14:51:25;25.10;99.90
18741;DHT22;9499;52.472;13.448;2022-07-23T14:53:52;25.10;99.90
18741;DHT22;9499;52.472;13.448;2022-07-23T14:56:19;25.20;99.90
18741;DHT22;9499;52.472;13.448;2022-07-23T14:58:45;25.40;99.90
18741;DHT22;9499;52.472;13.448;2022-07-23T15:01:12;25.80;99.90
18741;DHT22;9499;52.472;13.448;2022-07-23T15:03:39;25.90;99.90
18741;DHT22;9499;52.472;13.448;2022-07-23T15:06:07;25.70;99.90
18741;DHT22;9499;52.472;13.448;2022-07-23T15:08:34;25.70;99.90
18741;DHT22;9499;52.472;13.448;2022-07-23T15:11:00;26.00;99.90
18741;DHT22;9499;52.472;13.448;2022-07-23T15:13:27;26.30;99.90
18741;DHT22;9499;52.472;13.448;2022-07-23T15:15:53;26.70;99.90
18741;DHT22;9499;52.472;13.448;2022-07-23T15:18:20;27.10;99.90
18741;DHT22;9499;52.472;13.448;2022-07-23T15:20:46;27.00;99.90
18741;DHT22;9499;52.472;13.448;2022-07-23T15:23:14;26.60;99.90
18741;DHT22;9499;52.472;13.448;2022-07-23T15:25:41;26.40;99.90
18741;DHT22;9499;52.472;13.448;2022-07-23T15:28:07;26.40;99.90
18741;DHT22;9499;52.472;13.448;2022-07-23T15:30:34;26.70;99.90
18741;DHT22;9499;52.472;13.448;2022-07-23T15:33:00;26.90;99.90
18741;DHT22;9499;52.472;13.448;2022-07-23T15:35:27;26.80;99.90